INFORMAÇÕES DO AERODROMO
Icao Aerodromo SBCH Nome do Aerodromo Chapecó Airport Cidade Chapecó
Código GPS SBCH Elevação Média 2146 ft Tipo de Aerodromo Aeroporto Médio Porte

INFORMAÇÃO DE PISTA
Pista 11 Comprimento da Pista 6768 ft Largura da Pista 148 ft
Elevação da Pista 0 ft Distância de Area de Escape da Pista 0 ft Orientação da Pista 0
Pista 29 Comprimento da Pista 6768 ft Largura da Pista 148 ft
Elevação da Pista 0 ft Distância de Area de Escape da Pista 0 ft Orientação da Pista 0

FREQUÊNCIAS DO AERODROMO
Tipo AFIS Nome RDO Frequência 130.85 MHZ

INFORMAÇÕES DE NAVEGAÇÃO PRÓXIMO AO AERODROMO
Tipo VOR-DME Nome Chapeco Frequência 116100 KHZ
Tipo NDB Nome Chapeco Frequência 173 KHZ

Informações de Meteorologia(METAR atual)
METAR DE SBCH
ADDS - METARS form results

(1253 UTC 13 December 2018)
Data provider http://aviationweather.gov/metar/data/
 
METAR text: SBCH 131200Z 01008KT 9999 SCT020 BKN100 27/18 Q1017
Conditions at: SBCH (CHAPECO , BR) observed 1200 UTC 13 December 2018
Temperature: 27.0°C (81°F)
Dewpoint: 18.0°C (64°F) [RH = 58%]
Pressure (altimeter): 30.03 inches Hg (1017.0 mb)
Winds: from the N (10 degrees) at 9 MPH (8 knots; 4.1 m/s)
Visibility: 6 or more miles (10+ km)
Ceiling: 10000 feet AGL
Clouds: scattered clouds at 2000 feet AGL
broken clouds at 10000 feet AGL
Weather: no significant weather observed at this time

MAPA DO AERODROMO


Desenvolvido por Virtual Airlines Manager




Modificado por Servidor Brasil Amigos